createdAt,value
2019-02-22T00:00:10.636Z,74.70
2019-02-22T00:01:10.640Z,75.20
2019-02-22T00:02:10.643Z,76.50
2019-02-22T00:03:10.595Z,80.20
2019-02-22T00:04:10.581Z,81.50
2019-02-22T00:05:10.575Z,82.30
2019-02-22T00:06:10.562Z,83.60
2019-02-22T00:07:10.585Z,85.50
2019-02-22T00:08:10.539Z,87.30
2019-02-22T00:09:10.522Z,85.90
2019-02-22T00:10:10.516Z,89.90
2019-02-22T00:11:10.506Z,95.90
2019-02-22T00:12:10.515Z,95.60
2019-02-22T00:13:10.483Z,97.20
2019-02-22T00:14:10.471Z,95.00
2019-02-22T00:15:10.457Z,97.30
2019-02-22T00:16:10.440Z,104.20
2019-02-22T00:17:10.455Z,108.70
2019-02-22T00:18:10.420Z,103.50
2019-02-22T00:19:10.405Z,100.50
2019-02-22T00:20:10.391Z,105.80
2019-02-22T00:21:10.379Z,101.10
2019-02-22T00:22:10.392Z,109.30
2019-02-22T00:23:10.356Z,106.10
2019-02-22T00:24:10.381Z,108.60
2019-02-22T00:25:10.330Z,105.80
2019-02-22T00:26:11.148Z,104.60
2019-02-22T00:27:10.341Z,109.60
2019-02-22T00:28:10.299Z,109.00
2019-02-22T00:29:10.291Z,107.20
2019-02-22T00:30:10.282Z,114.90
2019-02-22T00:31:10.258Z,107.40
2019-02-22T00:32:10.289Z,112.20
2019-02-22T00:33:10.239Z,105.60
2019-02-22T00:34:10.330Z,108.60
2019-02-22T00:35:10.269Z,112.30
2019-02-22T00:36:10.294Z,115.50
2019-02-22T00:37:10.262Z,122.20
2019-02-22T00:38:10.194Z,117.80
2019-02-22T00:39:13.176Z,115.70
2019-02-22T00:40:10.187Z,117.90
2019-02-22T00:41:10.145Z,123.50
2019-02-22T00:42:10.159Z,117.00
2019-02-22T00:43:10.122Z,113.90
2019-02-22T00:44:10.114Z,110.50
2019-02-22T00:45:10.095Z,119.00
2019-02-22T00:46:10.083Z,114.70
2019-02-22T00:47:10.112Z,110.20
2019-02-22T00:48:10.066Z,120.70
2019-02-22T00:49:10.073Z,111.50
2019-02-22T00:50:10.041Z,109.30
2019-02-22T00:51:10.026Z,108.00
2019-02-22T00:52:10.020Z,102.70
2019-02-22T00:53:10.009Z,112.20
2019-02-22T00:54:10.034Z,114.00
2019-02-22T00:55:09.984Z,113.00
2019-02-22T00:56:09.965Z,108.70
2019-02-22T00:57:09.958Z,108.80
2019-02-22T00:58:09.944Z,106.50
2019-02-22T00:59:09.969Z,110.90
2019-02-22T01:00:09.930Z,105.40
2019-02-22T01:01:09.909Z,117.20
2019-02-22T01:02:09.897Z,112.00
2019-02-22T01:03:09.887Z,106.80
2019-02-22T01:04:09.890Z,115.50
2019-02-22T01:05:09.894Z,108.50
2019-02-22T01:06:09.861Z,110.70
2019-02-22T01:07:09.857Z,114.10
2019-02-22T01:08:09.841Z,112.90
2019-02-22T01:09:09.850Z,106.70
2019-02-22T01:10:09.810Z,122.20
2019-02-22T01:11:09.792Z,119.70
2019-02-22T01:12:09.781Z,116.70
2019-02-22T01:13:09.803Z,119.80
2019-02-22T01:14:09.763Z,126.10
2019-02-22T01:15:09.752Z,127.80
2019-02-22T01:16:09.737Z,114.50
2019-02-22T01:17:09.729Z,127.60
2019-02-22T01:18:09.737Z,123.50
2019-02-22T01:19:09.699Z,120.20
2019-02-22T01:20:09.694Z,113.80
2019-02-22T01:21:09.737Z,108.40
2019-02-22T01:22:09.668Z,127.10
2019-02-22T01:23:09.656Z,124.50
2019-02-22T01:24:09.649Z,119.40
2019-02-22T01:25:09.647Z,107.60
2019-02-22T01:26:09.647Z,118.20
2019-02-22T01:27:09.624Z,115.00
2019-02-22T01:28:09.606Z,111.10
2019-02-22T01:29:09.574Z,117.80
2019-02-22T01:30:09.566Z,112.40
2019-02-22T01:31:09.599Z,108.70
2019-02-22T01:32:09.544Z,128.80
2019-02-22T01:33:09.529Z,133.50
2019-02-22T01:34:09.522Z,128.60
2019-02-22T01:35:09.506Z,118.20
2019-02-22T01:36:09.520Z,115.50
2019-02-22T01:37:09.523Z,128.80
2019-02-22T01:38:09.473Z,123.50
2019-02-22T01:39:09.493Z,140.70
2019-02-22T01:40:09.445Z,141.40
2019-02-22T01:41:09.432Z,139.10
2019-02-22T01:42:09.425Z,139.80
2019-02-22T01:43:09.435Z,130.90
2019-02-22T01:44:09.407Z,143.40
2019-02-22T01:45:09.387Z,128.80
2019-02-22T01:46:09.384Z,119.30
2019-02-22T01:47:09.372Z,139.20
2019-02-22T01:48:09.373Z,137.40
2019-02-22T01:49:09.363Z,131.00
2019-02-22T01:50:09.332Z,144.20
2019-02-22T01:51:09.331Z,140.80
2019-02-22T01:52:09.308Z,137.80
2019-02-22T01:53:09.299Z,140.70
2019-02-22T01:54:09.316Z,135.10
2019-02-22T01:55:09.280Z,145.00
2019-02-22T01:56:09.261Z,139.90
2019-02-22T01:57:09.242Z,118.70
2019-02-22T01:58:09.231Z,156.10
2019-02-22T01:59:09.258Z,140.60
2019-02-22T02:00:09.211Z,143.80
2019-02-22T02:01:09.209Z,129.40
2019-02-22T02:02:09.226Z,147.20
2019-02-22T02:03:09.175Z,150.80
2019-02-22T02:04:09.166Z,140.90
2019-02-22T02:05:09.176Z,130.60
2019-02-22T02:06:09.144Z,120.80
2019-02-22T02:07:09.152Z,137.10
2019-02-22T02:08:09.120Z,137.10
2019-02-22T02:09:09.106Z,147.90
2019-02-22T02:10:09.092Z,156.40
2019-02-22T02:11:09.080Z,162.40
2019-02-22T02:12:09.111Z,149.80
2019-02-22T02:13:09.053Z,141.00
2019-02-22T02:14:09.065Z,142.40
2019-02-22T02:15:09.047Z,151.50
2019-02-22T02:16:09.019Z,143.90
2019-02-22T02:17:09.043Z,139.10
2019-02-22T02:18:09.049Z,129.60
2019-02-22T02:19:08.984Z,141.70
2019-02-22T02:20:09.020Z,159.70
2019-02-22T02:21:08.963Z,123.60
2019-02-22T02:22:08.973Z,154.50
2019-02-22T02:23:08.948Z,149.40
2019-02-22T02:24:08.928Z,137.50
2019-02-22T02:25:08.920Z,146.20
2019-02-22T02:26:08.904Z,164.80
2019-02-22T02:27:08.926Z,167.90
2019-02-22T02:28:08.885Z,140.60
2019-02-22T02:29:08.875Z,144.20
2019-02-22T02:30:08.862Z,138.10
2019-02-22T02:31:08.877Z,160.70
2019-02-22T02:32:08.848Z,145.30
2019-02-22T02:33:08.830Z,147.70
2019-02-22T02:34:08.813Z,148.90
2019-02-22T02:35:08.799Z,149.60
2019-02-22T02:36:08.823Z,152.00
2019-02-22T02:37:08.789Z,175.70
2019-02-22T02:38:08.770Z,156.60
2019-02-22T02:39:08.752Z,135.50
2019-02-22T02:40:08.778Z,144.80
2019-02-22T02:41:11.473Z,126.70
2019-02-22T02:42:08.746Z,151.30
2019-02-22T02:43:08.712Z,136.00
2019-02-22T02:44:08.697Z,152.10
2019-02-22T02:45:08.737Z,151.90
2019-02-22T02:46:08.703Z,136.50
2019-02-22T02:47:08.661Z,153.30
2019-02-22T02:48:08.650Z,126.90
2019-02-22T02:49:08.638Z,149.10
2019-02-22T02:50:08.666Z,143.50
2019-02-22T02:51:08.617Z,144.80
2019-02-22T02:52:08.619Z,149.40
2019-02-22T02:53:08.592Z,155.20
2019-02-22T02:54:08.580Z,156.00
2019-02-22T02:55:08.596Z,154.00
2019-02-22T02:56:08.552Z,140.50
2019-02-22T02:57:08.549Z,145.30
2019-02-22T02:58:08.534Z,128.00
2019-02-22T02:59:08.528Z,153.40
2019-02-22T03:00:08.555Z,140.60
2019-02-22T03:01:08.531Z,153.60
2019-02-22T03:02:08.493Z,153.40
2019-02-22T03:03:08.488Z,115.30
2019-02-22T03:04:08.461Z,122.50
2019-02-22T03:05:08.474Z,109.60
2019-02-22T03:06:08.460Z,111.30
2019-02-22T03:07:08.422Z,104.30
2019-02-22T03:08:08.411Z,104.30
2019-02-22T03:09:08.407Z,116.60
2019-02-22T03:10:08.438Z,113.30
2019-02-22T03:11:19.725Z,107.90
2019-02-22T03:12:09.362Z,114.20
2019-02-22T03:13:08.353Z,114.30
2019-02-22T03:14:08.342Z,124.50
2019-02-22T03:15:08.367Z,110.80
2019-02-22T03:16:08.326Z,97.70
2019-02-22T03:17:08.305Z,99.00
2019-02-22T03:18:08.295Z,94.20
2019-02-22T03:19:08.284Z,95.40
2019-02-22T03:20:08.304Z,113.90
2019-02-22T03:21:08.261Z,102.20
2019-02-22T03:22:08.249Z,115.30
2019-02-22T03:23:08.242Z,112.10
2019-02-22T03:24:08.224Z,101.40
2019-02-22T03:25:08.250Z,95.10
2019-02-22T03:26:08.197Z,94.00
2019-02-22T03:27:08.187Z,95.60
2019-02-22T03:28:08.174Z,100.10
2019-02-22T03:29:08.171Z,89.40
2019-02-22T03:30:08.190Z,90.60
2019-02-22T03:31:08.178Z,95.10
2019-02-22T03:32:08.133Z,102.20
2019-02-22T03:33:08.117Z,106.70
2019-02-22T03:34:08.112Z,100.20
2019-02-22T03:35:08.094Z,81.30
2019-02-22T03:36:08.120Z,103.40
2019-02-22T03:37:08.103Z,88.90
2019-02-22T03:38:08.054Z,89.00
2019-02-22T03:39:08.044Z,97.60
2019-02-22T03:40:08.032Z,89.00
2019-02-22T03:41:08.053Z,84.10
2019-02-22T03:42:08.012Z,84.10
2019-02-22T03:43:08.021Z,100.30
2019-02-22T03:44:07.987Z,86.00
2019-02-22T03:45:07.971Z,97.40
2019-02-22T03:46:07.992Z,90.60
2019-02-22T03:47:07.978Z,83.00
2019-02-22T03:48:07.938Z,84.30
2019-02-22T03:49:07.927Z,102.10
2019-02-22T03:50:07.912Z,94.80
2019-02-22T03:51:07.906Z,99.60
2019-02-22T03:52:07.912Z,95.70
2019-02-22T03:53:07.882Z,85.60
2019-02-22T03:54:07.864Z,88.10
2019-02-22T03:55:07.855Z,84.10
2019-02-22T03:56:07.858Z,78.60
2019-02-22T03:57:07.886Z,82.60
2019-02-22T03:58:07.814Z,87.30
2019-02-22T03:59:07.803Z,83.00
2019-02-22T04:00:07.799Z,81.90
2019-02-22T04:01:07.781Z,90.10
2019-02-22T04:02:07.811Z,91.70
2019-02-22T04:03:07.764Z,93.80
2019-02-22T04:04:07.744Z,91.30
2019-02-22T04:05:07.733Z,77.40
2019-02-22T04:06:07.757Z,88.60
2019-02-22T04:07:07.715Z,82.80
2019-02-22T04:08:07.703Z,81.80
2019-02-22T04:09:07.693Z,84.30
2019-02-22T04:10:07.739Z,71.50
2019-02-22T04:11:07.662Z,80.30
2019-02-22T04:12:07.661Z,80.60
2019-02-22T04:13:07.637Z,95.10
2019-02-22T04:14:07.631Z,93.60
2019-02-22T04:15:07.641Z,72.80
2019-02-22T04:16:07.607Z,92.10
2019-02-22T04:17:07.590Z,92.00
2019-02-22T04:18:07.614Z,88.80
2019-02-22T04:19:07.561Z,111.40
2019-02-22T04:20:07.548Z,111.50
2019-02-22T04:21:07.570Z,111.60
2019-02-22T04:22:07.527Z,119.60
2019-02-22T04:23:07.542Z,103.60
2019-02-22T04:24:07.503Z,119.20
2019-02-22T04:25:07.494Z,95.30
2019-02-22T04:26:07.512Z,106.70
2019-02-22T04:27:07.475Z,101.30
2019-02-22T04:28:07.457Z,113.00
2019-02-22T04:29:07.452Z,93.40
2019-02-22T04:30:07.431Z,96.30
2019-02-22T04:31:07.448Z,97.40
2019-02-22T04:32:07.409Z,96.40
2019-02-22T04:33:07.398Z,95.90
2019-02-22T04:34:07.430Z,100.00
2019-02-22T04:35:07.421Z,111.20
2019-02-22T04:36:07.372Z,102.20
2019-02-22T04:37:07.352Z,96.90
2019-02-22T04:38:07.343Z,90.00
2019-02-22T04:39:07.363Z,97.30
2019-02-22T04:40:07.356Z,101.50
2019-02-22T04:41:07.318Z,98.70
2019-02-22T04:42:07.294Z,98.20
2019-02-22T04:43:07.286Z,83.20
2019-02-22T04:44:07.271Z,85.70
2019-02-22T04:45:07.293Z,96.60
2019-02-22T04:46:07.253Z,106.10
2019-02-22T04:47:07.240Z,97.60
2019-02-22T04:48:07.262Z,99.90
2019-02-22T04:49:07.215Z,96.40
2019-02-22T04:50:07.234Z,123.10
2019-02-22T04:51:07.219Z,111.40
2019-02-22T04:52:07.187Z,124.90
2019-02-22T04:53:07.204Z,111.70
2019-02-22T04:54:07.157Z,137.80
2019-02-22T04:55:07.171Z,98.80
2019-02-22T04:56:07.184Z,137.10
2019-02-22T04:57:07.133Z,123.00
2019-02-22T04:58:07.121Z,116.10
2019-02-22T04:59:07.106Z,119.50
2019-02-22T05:00:07.103Z,113.80
2019-02-22T05:01:07.107Z,120.10
2019-02-22T05:02:07.067Z,131.30
2019-02-22T05:03:07.051Z,130.30
2019-02-22T05:04:07.052Z,121.50
2019-02-22T05:05:07.074Z,110.10
2019-02-22T05:06:07.017Z,100.30
2019-02-22T05:07:07.034Z,136.50
2019-02-22T05:08:06.993Z,140.30
2019-02-22T05:09:06.987Z,118.20
2019-02-22T05:10:06.981Z,122.40
2019-02-22T05:11:06.962Z,123.50
2019-02-22T05:12:10.854Z,117.90
2019-02-22T05:13:06.932Z,97.60
2019-02-22T05:14:06.946Z,101.80
2019-02-22T05:15:12.625Z,118.90
2019-02-22T05:16:07.905Z,99.20
2019-02-22T05:17:06.913Z,116.50
2019-02-22T05:18:06.931Z,121.90
2019-02-22T05:19:06.901Z,127.80
2019-02-22T05:20:06.862Z,103.80
2019-02-22T05:21:06.843Z,89.50
2019-02-22T05:22:06.866Z,88.30
2019-02-22T05:23:07.637Z,97.60
2019-02-22T05:24:06.826Z,91.50
2019-02-22T05:25:06.791Z,83.50
2019-02-22T05:26:06.782Z,94.20
2019-02-22T05:27:06.807Z,87.80
2019-02-22T05:28:06.761Z,88.50
2019-02-22T05:29:06.746Z,77.80
2019-02-22T05:30:06.755Z,93.60
2019-02-22T05:31:06.723Z,95.60
2019-02-22T05:32:06.750Z,86.90
2019-02-22T05:33:06.715Z,99.00
2019-02-22T05:34:06.691Z,85.90
2019-02-22T05:35:06.703Z,80.60
2019-02-22T05:36:06.667Z,86.70
2019-02-22T05:37:06.652Z,95.70
2019-02-22T05:38:06.685Z,90.40
2019-02-22T05:39:18.086Z,93.40
2019-02-22T05:40:07.645Z,94.20
2019-02-22T05:41:06.607Z,90.40
2019-02-22T05:42:06.619Z,79.60
2019-02-22T05:43:06.580Z,73.80
2019-02-22T05:44:06.602Z,66.50
2019-02-22T05:45:06.557Z,66.90
2019-02-22T05:46:06.580Z,72.50
2019-02-22T05:47:06.538Z,75.00
2019-02-22T05:48:06.519Z,77.00
2019-02-22T05:49:06.515Z,60.40
2019-02-22T05:50:06.501Z,63.60
2019-02-22T05:51:06.605Z,59.60
2019-02-22T05:52:06.468Z,57.70
2019-02-22T05:53:06.464Z,55.50
2019-02-22T05:54:06.450Z,62.70
2019-02-22T05:55:06.437Z,58.20
2019-02-22T05:56:06.450Z,62.20
2019-02-22T05:57:06.411Z,62.20
2019-02-22T05:58:06.408Z,59.90
2019-02-22T05:59:06.396Z,59.50
2019-02-22T06:00:06.430Z,68.20
2019-02-22T06:01:06.984Z,63.90
2019-02-22T06:02:06.356Z,66.00
2019-02-22T06:03:06.340Z,62.10
2019-02-22T06:04:06.330Z,62.80
2019-02-22T06:05:06.350Z,63.00
2019-02-22T06:06:06.334Z,63.10
2019-02-22T06:07:06.296Z,59.00
2019-02-22T06:08:08.778Z,58.50
2019-02-22T06:09:06.288Z,62.90
2019-02-22T06:10:06.262Z,59.00
2019-02-22T06:11:06.289Z,62.30
2019-02-22T06:12:06.249Z,61.40
2019-02-22T06:13:06.229Z,58.90
2019-02-22T06:14:06.247Z,59.20
2019-02-22T06:15:06.207Z,55.20
2019-02-22T06:16:06.224Z,56.20
2019-02-22T06:17:14.209Z,60.20
2019-02-22T06:18:07.184Z,59.10
2019-02-22T06:19:06.161Z,62.60
2019-02-22T06:20:06.196Z,58.30
2019-02-22T06:21:06.159Z,57.60
2019-02-22T06:22:06.125Z,55.80
2019-02-22T06:23:06.119Z,56.60
2019-02-22T06:24:06.151Z,60.80
2019-02-22T06:25:06.115Z,61.10
2019-02-22T06:26:06.110Z,61.60
2019-02-22T06:27:06.070Z,63.50
2019-02-22T06:28:06.062Z,57.20
2019-02-22T06:29:06.158Z,61.60
2019-02-22T06:30:06.072Z,62.40
2019-02-22T06:31:06.021Z,57.90
2019-02-22T06:32:06.015Z,62.00
2019-02-22T06:33:06.012Z,59.40
2019-02-22T06:34:06.030Z,61.30
2019-02-22T06:35:08.709Z,60.50
2019-02-22T06:36:05.979Z,56.90
2019-02-22T06:37:05.972Z,55.70
2019-02-22T06:38:05.948Z,57.70
2019-02-22T06:39:05.974Z,61.50
2019-02-22T06:40:05.925Z,59.10
2019-02-22T06:41:05.924Z,60.00
2019-02-22T06:42:05.909Z,57.90
2019-02-22T06:43:05.884Z,57.10
2019-02-22T06:44:05.905Z,56.50
2019-02-22T06:45:05.881Z,57.50
2019-02-22T06:46:05.884Z,57.30
2019-02-22T06:47:06.084Z,56.00
2019-02-22T06:48:05.839Z,57.90
2019-02-22T06:49:05.818Z,55.30
2019-02-22T06:50:05.885Z,53.70
2019-02-22T06:51:05.797Z,54.40
2019-02-22T06:52:05.833Z,56.40
2019-02-22T06:53:05.774Z,55.40
2019-02-22T06:54:05.772Z,55.80
2019-02-22T06:55:05.760Z,54.20
2019-02-22T06:56:05.739Z,56.50
2019-02-22T06:57:05.767Z,54.00
2019-02-22T06:58:05.714Z,52.20
2019-02-22T06:59:05.706Z,52.50
2019-02-22T07:00:05.704Z,59.40
2019-02-22T07:01:05.679Z,55.90
2019-02-22T07:02:05.695Z,55.00
2019-02-22T07:03:05.657Z,52.10
2019-02-22T07:04:05.646Z,49.60
2019-02-22T07:05:05.649Z,51.10
2019-02-22T07:06:05.866Z,52.20
2019-02-22T07:07:05.755Z,50.30
2019-02-22T07:08:05.683Z,50.70
2019-02-22T07:09:05.635Z,54.80
2019-02-22T07:10:05.646Z,51.60
2019-02-22T07:11:06.290Z,49.70
2019-02-22T07:12:06.262Z,51.00
2019-02-22T07:13:05.589Z,50.50
2019-02-22T07:14:05.560Z,50.70
2019-02-22T07:15:05.536Z,51.10
2019-02-22T07:16:05.516Z,53.70
2019-02-22T07:17:05.542Z,51.20
2019-02-22T07:18:05.510Z,50.90
2019-02-22T07:19:05.505Z,51.10
2019-02-22T07:20:05.467Z,54.10
2019-02-22T07:21:05.458Z,51.00
2019-02-22T07:22:05.468Z,50.50
2019-02-22T07:23:05.469Z,52.10
2019-02-22T07:24:05.420Z,48.90
2019-02-22T07:25:05.406Z,51.20
2019-02-22T07:26:05.407Z,52.10
2019-02-22T07:27:05.412Z,46.50
2019-02-22T07:28:05.373Z,50.70
2019-02-22T07:29:05.363Z,50.70
2019-02-22T07:30:05.374Z,47.30
2019-02-22T07:31:05.401Z,52.60
2019-02-22T07:32:06.423Z,52.00
2019-02-22T07:33:05.312Z,49.30
2019-02-22T07:34:05.305Z,51.90
2019-02-22T07:35:05.319Z,50.60
2019-02-22T07:36:05.286Z,50.60
2019-02-22T07:37:05.289Z,50.00
2019-02-22T07:38:05.258Z,48.00
2019-02-22T07:39:05.255Z,50.60
2019-02-22T07:40:05.267Z,53.10
2019-02-22T07:41:05.230Z,48.50
2019-02-22T07:42:05.206Z,47.60
2019-02-22T07:43:07.916Z,46.90
2019-02-22T07:44:05.215Z,44.50
2019-02-22T07:45:05.173Z,51.20
2019-02-22T07:46:05.158Z,49.40
2019-02-22T07:47:05.149Z,51.10
2019-02-22T07:48:05.162Z,49.80
2019-02-22T07:49:05.714Z,47.90
2019-02-22T07:50:05.167Z,46.50
2019-02-22T07:51:05.108Z,46.50
2019-02-22T07:52:05.098Z,49.10
2019-02-22T07:53:05.120Z,47.50
2019-02-22T07:54:05.092Z,50.10
2019-02-22T07:55:05.051Z,47.80
2019-02-22T07:56:05.097Z,51.10
2019-02-22T07:57:05.033Z,50.70
2019-02-22T07:58:05.053Z,49.50
2019-02-22T07:59:05.030Z,53.80
2019-02-22T08:00:05.018Z,48.30
2019-02-22T08:01:05.054Z,53.50
2019-02-22T08:02:04.974Z,53.80
2019-02-22T08:03:04.968Z,48.00
2019-02-22T08:04:04.940Z,54.00
2019-02-22T08:05:04.950Z,52.80
2019-02-22T08:06:04.920Z,52.90
2019-02-22T08:07:04.934Z,56.30
2019-02-22T08:08:04.891Z,51.00
2019-02-22T08:09:04.876Z,51.50
2019-02-22T08:10:04.896Z,48.90
2019-02-22T08:11:04.874Z,51.20
2019-02-22T08:12:04.910Z,50.90
2019-02-22T08:13:04.831Z,47.40
2019-02-22T08:14:07.645Z,51.70
2019-02-22T08:15:04.804Z,51.10
2019-02-22T08:16:04.796Z,49.80
2019-02-22T08:17:04.810Z,51.70
2019-02-22T08:18:04.796Z,47.00
2019-02-22T08:19:04.795Z,48.40
2019-02-22T08:20:04.744Z,52.30
2019-02-22T08:21:04.759Z,48.90
2019-02-22T08:22:04.724Z,48.10
2019-02-22T08:23:04.708Z,48.90
2019-02-22T08:24:04.720Z,47.20
2019-02-22T08:25:04.683Z,45.20
2019-02-22T08:26:04.675Z,48.10
2019-02-22T08:27:04.660Z,46.30
2019-02-22T08:28:04.649Z,46.80
2019-02-22T08:29:04.670Z,49.10
2019-02-22T08:30:04.623Z,46.90
2019-02-22T08:31:04.612Z,49.60
2019-02-22T08:32:04.602Z,49.40
2019-02-22T08:33:04.610Z,48.70
2019-02-22T08:34:04.607Z,51.10
2019-02-22T08:35:04.570Z,49.50
2019-02-22T08:36:04.574Z,50.30
2019-02-22T08:37:04.538Z,49.70
2019-02-22T08:38:04.524Z,48.10
2019-02-22T08:39:04.553Z,50.50
2019-02-22T08:40:04.752Z,50.40
2019-02-22T08:41:04.545Z,48.50
2019-02-22T08:42:04.478Z,50.30
2019-02-22T08:44:14.312Z,51.00
2019-02-22T08:45:14.235Z,52.40
2019-02-22T08:46:14.222Z,52.80
2019-02-22T08:47:14.212Z,50.20
2019-02-22T08:48:14.207Z,46.40
2019-02-22T08:49:14.188Z,49.30
2019-02-22T08:50:14.604Z,47.30
2019-02-22T08:51:14.175Z,47.00
2019-02-22T08:52:14.169Z,46.50
2019-02-22T08:53:14.149Z,47.00
2019-02-22T08:54:14.131Z,47.60
2019-02-22T08:55:14.111Z,45.80
2019-02-22T08:56:14.150Z,48.00
2019-02-22T08:57:14.107Z,43.70
2019-02-22T08:58:14.103Z,41.30
2019-02-22T08:59:14.069Z,43.00
2019-02-22T09:00:14.072Z,41.80
2019-02-22T09:01:14.065Z,43.10
2019-02-22T09:02:14.108Z,41.50
2019-02-22T09:03:14.033Z,40.70
2019-02-22T09:04:14.006Z,42.30
2019-02-22T09:05:13.993Z,42.00
2019-02-22T09:06:14.037Z,42.30
2019-02-22T09:07:13.975Z,43.90
2019-02-22T09:08:13.982Z,42.50
2019-02-22T09:09:13.948Z,44.10
2019-02-22T09:10:13.953Z,41.10
2019-02-22T09:11:13.923Z,41.60
2019-02-22T09:12:13.932Z,41.40
2019-02-22T09:13:13.898Z,40.90
2019-02-22T09:14:13.976Z,42.20
2019-02-22T09:15:13.874Z,42.20
2019-02-22T09:16:13.898Z,40.50
2019-02-22T09:17:13.865Z,40.90
2019-02-22T09:18:13.855Z,40.30
2019-02-22T09:19:13.829Z,39.80
2019-02-22T09:20:13.861Z,40.70
2019-02-22T09:21:13.809Z,38.60
2019-02-22T09:22:22.390Z,42.50
2019-02-22T09:23:14.788Z,42.80
2019-02-22T09:24:13.791Z,40.40
2019-02-22T09:25:13.764Z,38.80
2019-02-22T09:26:13.779Z,38.80
2019-02-22T09:27:13.734Z,38.50
2019-02-22T09:28:13.741Z,38.20
2019-02-22T09:29:13.772Z,36.60
2019-02-22T09:30:13.711Z,37.70
2019-02-22T09:31:13.716Z,37.80
2019-02-22T09:32:13.697Z,39.30
2019-02-22T09:33:13.690Z,39.10
2019-02-22T09:34:13.667Z,36.40
2019-02-22T09:35:13.658Z,36.10
2019-02-22T09:36:13.643Z,37.30
2019-02-22T09:37:13.627Z,36.10
2019-02-22T09:38:13.682Z,34.20
2019-02-22T09:39:13.600Z,36.40
2019-02-22T09:40:14.788Z,36.50
2019-02-22T09:41:13.574Z,35.00
2019-02-22T09:42:13.575Z,31.50
2019-02-22T09:43:13.551Z,32.70
2019-02-22T09:44:13.565Z,32.80
2019-02-22T09:45:13.534Z,33.70
2019-02-22T09:46:13.544Z,30.20
2019-02-22T09:47:13.513Z,27.00
2019-02-22T09:48:13.497Z,28.70
2019-02-22T09:49:13.493Z,27.70
2019-02-22T09:50:13.520Z,28.90
2019-02-22T09:51:13.479Z,28.20
2019-02-22T09:52:13.455Z,28.30
2019-02-22T09:53:13.459Z,27.40
2019-02-22T09:54:13.430Z,26.40
2019-02-22T09:55:13.433Z,25.80
2019-02-22T09:56:13.517Z,27.50
2019-02-22T09:57:13.397Z,26.70
2019-02-22T09:58:13.443Z,24.70
2019-02-22T09:59:13.370Z,26.10
2019-02-22T10:00:13.422Z,27.00
2019-02-22T10:01:13.370Z,25.80
2019-02-22T10:02:13.390Z,25.00
2019-02-22T10:03:13.393Z,20.90
2019-02-22T10:04:13.348Z,18.80
2019-02-22T10:05:13.302Z,21.40
2019-02-22T10:06:13.295Z,22.00
2019-02-22T10:07:13.283Z,20.70
2019-02-22T10:08:13.313Z,19.80
2019-02-22T10:09:13.259Z,21.30
2019-02-22T10:10:13.280Z,22.70
2019-02-22T10:11:13.235Z,22.50
2019-02-22T10:12:13.237Z,20.50
2019-02-22T10:13:13.220Z,20.00
2019-02-22T10:14:13.226Z,18.80
2019-02-22T10:15:13.203Z,18.10
2019-02-22T10:16:13.187Z,18.70
2019-02-22T10:17:13.190Z,19.50
2019-02-22T10:18:13.158Z,19.30
2019-02-22T10:19:13.209Z,17.60
2019-02-22T10:20:13.169Z,18.10
2019-02-22T10:21:13.138Z,18.50
2019-02-22T10:22:13.155Z,19.40
2019-02-22T10:23:13.103Z,18.10
2019-02-22T10:24:13.140Z,18.20
2019-02-22T10:25:13.122Z,18.50
2019-02-22T10:26:13.164Z,18.00
2019-02-22T10:27:13.056Z,18.80
2019-02-22T10:28:17.780Z,15.90
2019-02-22T10:29:14.060Z,17.80
2019-02-22T10:30:13.044Z,17.70
2019-02-22T10:31:13.048Z,18.30
2019-02-22T10:32:13.018Z,19.70
2019-02-22T10:33:12.993Z,18.90
2019-02-22T10:34:12.997Z,16.30
2019-02-22T10:35:12.972Z,16.80
2019-02-22T10:36:12.964Z,16.10
2019-02-22T10:37:12.958Z,18.00
2019-02-22T10:38:12.948Z,16.90
2019-02-22T10:39:12.923Z,17.30
2019-02-22T10:40:12.920Z,16.60
2019-02-22T10:41:12.904Z,16.00
2019-02-22T10:42:12.919Z,15.50
2019-02-22T10:43:12.913Z,14.60
2019-02-22T10:44:17.654Z,14.90
2019-02-22T10:45:13.849Z,14.30
2019-02-22T10:46:12.840Z,14.60
2019-02-22T10:47:12.829Z,12.90
2019-02-22T10:48:12.847Z,13.80
2019-02-22T10:49:12.811Z,14.00
2019-02-22T10:50:12.874Z,12.90
2019-02-22T10:51:12.821Z,12.40
2019-02-22T10:52:12.791Z,12.20
2019-02-22T10:53:12.769Z,10.70
2019-02-22T10:54:12.760Z,10.90
2019-02-22T10:55:12.814Z,9.30
2019-02-22T10:56:12.751Z,9.90
2019-02-22T10:57:12.724Z,10.60
2019-02-22T10:58:12.707Z,10.00
2019-02-22T10:59:12.713Z,10.40
2019-02-22T11:00:12.780Z,10.60
2019-02-22T11:01:12.709Z,10.60
2019-02-22T11:02:12.737Z,11.30
2019-02-22T11:03:12.704Z,9.10
2019-02-22T11:04:12.643Z,9.00
2019-02-22T11:05:12.683Z,9.50
2019-02-22T11:06:12.630Z,9.60
2019-02-22T11:07:12.610Z,9.60
2019-02-22T11:08:12.642Z,9.90
2019-02-22T11:09:12.610Z,9.70
2019-02-22T11:10:12.579Z,9.70
2019-02-22T11:11:12.571Z,8.50
2019-02-22T11:12:12.565Z,8.80
2019-02-22T11:13:12.569Z,8.50
2019-02-22T11:14:12.594Z,8.30
2019-02-22T11:15:12.517Z,7.90
2019-02-22T11:16:12.517Z,7.70
2019-02-22T11:17:12.496Z,7.80
2019-02-22T11:18:12.523Z,8.20
2019-02-22T11:19:12.504Z,8.70
2019-02-22T11:20:12.500Z,8.00
2019-02-22T11:21:12.465Z,7.70
2019-02-22T11:22:12.442Z,7.40
2019-02-22T11:23:12.466Z,7.50
2019-02-22T11:24:12.460Z,7.30
2019-02-22T11:25:12.408Z,5.20
2019-02-22T11:26:12.414Z,4.50
2019-02-22T11:27:12.453Z,5.40
2019-02-22T11:28:12.422Z,5.90
2019-02-22T11:29:12.394Z,5.60
2019-02-22T11:30:12.360Z,5.40
2019-02-22T11:31:12.336Z,6.30
2019-02-22T11:32:12.377Z,6.20
2019-02-22T11:33:12.334Z,6.20
2019-02-22T11:34:12.323Z,5.90
2019-02-22T11:35:12.294Z,5.00
2019-02-22T11:36:12.286Z,5.20
2019-02-22T11:37:12.283Z,5.00
2019-02-22T11:38:12.294Z,4.70
2019-02-22T11:39:12.264Z,4.80
2019-02-22T11:40:12.234Z,5.40
2019-02-22T11:41:12.225Z,4.80
2019-02-22T11:42:12.223Z,4.80
2019-02-22T11:43:12.235Z,4.60
2019-02-22T11:44:12.209Z,4.90
2019-02-22T11:45:12.178Z,4.40
2019-02-22T11:46:12.167Z,4.20
2019-02-22T11:47:12.173Z,4.50
2019-02-22T11:48:12.165Z,3.90
2019-02-22T11:49:12.141Z,4.00
2019-02-22T11:50:12.143Z,4.10
2019-02-22T11:51:12.111Z,3.50
2019-02-22T11:52:12.143Z,3.20
2019-02-22T11:53:12.107Z,2.50
2019-02-22T11:54:12.079Z,2.50
2019-02-22T11:55:12.065Z,2.60
2019-02-22T11:56:12.110Z,2.20
2019-02-22T11:57:12.078Z,3.00
2019-02-22T11:58:12.051Z,3.10
2019-02-22T11:59:12.027Z,2.80
2019-02-22T12:00:12.008Z,2.60
2019-02-22T12:01:12.006Z,2.80
2019-02-22T12:02:12.066Z,3.10
2019-02-22T12:03:23.910Z,2.70
2019-02-22T12:04:12.990Z,2.50
2019-02-22T12:05:11.966Z,2.70
2019-02-22T12:06:11.941Z,2.50
2019-02-22T12:07:11.969Z,2.60
2019-02-22T12:08:12.010Z,2.60
2019-02-22T12:09:11.970Z,2.60
2019-02-22T12:10:11.967Z,2.50
2019-02-22T12:11:11.932Z,2.50
2019-02-22T12:12:11.895Z,2.40
2019-02-22T12:13:11.880Z,2.60
2019-02-22T12:14:11.879Z,2.60
2019-02-22T12:15:11.891Z,2.60
2019-02-22T12:16:11.863Z,2.80
2019-02-22T12:17:11.820Z,2.70
2019-02-22T12:18:11.824Z,2.60
2019-02-22T12:19:11.804Z,3.20
2019-02-22T12:20:11.837Z,3.40
2019-02-22T12:21:11.794Z,3.00
2019-02-22T12:22:11.789Z,2.80
2019-02-22T12:23:11.757Z,3.10
2019-02-22T12:24:11.740Z,3.40
2019-02-22T12:25:11.728Z,3.40
2019-02-22T12:26:11.768Z,3.50
2019-02-22T12:27:14.117Z,3.30
2019-02-22T12:28:11.702Z,3.50
2019-02-22T12:29:11.682Z,3.50
2019-02-22T12:30:11.729Z,3.20
2019-02-22T12:31:11.690Z,3.60
2019-02-22T12:32:11.688Z,3.50
2019-02-22T12:33:11.633Z,4.00
2019-02-22T12:34:11.640Z,3.60
2019-02-22T12:35:11.657Z,3.80
2019-02-22T12:36:11.661Z,3.80
2019-02-22T12:37:11.597Z,4.00
2019-02-22T12:38:11.596Z,3.50
2019-02-22T12:39:11.564Z,3.80
2019-02-22T12:40:11.610Z,4.00
2019-02-22T12:41:11.562Z,3.60
2019-02-22T12:42:11.610Z,3.70
2019-02-22T12:43:11.522Z,3.60
2019-02-22T12:44:11.550Z,3.50
2019-02-22T12:45:11.543Z,4.10
2019-02-22T12:46:11.503Z,3.70
2019-02-22T12:47:11.492Z,4.10
2019-02-22T12:48:11.464Z,3.80
2019-02-22T12:49:11.498Z,3.80